Ono-I-Lau, Fiji
Current Conditions -  °F | °C
As of 8:00 AM on Saturday 01 Nov 2014 (Local Time) from NFTF Reporting Station
Scattered Clouds Scattered Clouds  
Wind Chill: 77°   Ceiling: Unl
Heat Index: 79°   Visibility: 6mi
Dew Point: 64°   Wind: 10mph
Humidity: 65%   Direction: 120°ESE
Pressure: 30.09"   Gusts: NA
Location:  20.67°S, 178.72°W
Report Text: NFTF 312000Z 12009KT 9999 FEW017 SCT280 25/18 Q1019
Loading
Personal Weather Stations






























Interactive Weather Map
Tropical Storm Tracking
New forecast layout! Learn more

10-Day Weather Forecast

Advertisements
Track Severe Weather on mobile